Terminal Aerodrome Forecast
Issued by NWS

Home | Current Version | Previous Version | Text Only | Print | Product List | Glossary On
Versions: 1 2 3 4 5 6 7 8 9 10 11 12 13 14 15 16
000
FTAK31 PAJN 282300
TAFAYA
TAF
PAYA 282325Z 2900/2924 27010KT P6SM SCT015
      TEMPO 2900/2904 BKN015
     FM290400 27006KT P6SM BKN010
     FM290600 27004KT P6SM OVC006
     FM291000 00000KT 2SM BR OVC004
     FM291800 31006KT P6SM SKC
      AMD LTD TO CLD VIS AND WIND 2901/2910=

USA.gov is the U.S. government's official web portal to all federal, state and local government web resources and services.